createdAt,value
2023-03-22T00:02:38.991Z,17.04
2023-03-22T00:05:40.624Z,17.04
2023-03-22T00:08:42.819Z,17.04
2023-03-22T00:11:44.298Z,17.02
2023-03-22T00:14:46.468Z,17.01
2023-03-22T00:17:50.200Z,17.02
2023-03-22T00:20:54.265Z,17.02
2023-03-22T00:23:55.821Z,17.01
2023-03-22T00:26:58.543Z,17.01
2023-03-22T00:30:00.200Z,17.02
2023-03-22T00:33:01.772Z,16.99
2023-03-22T00:36:06.746Z,17.00
2023-03-22T00:39:08.665Z,16.98
2023-03-22T00:42:10.767Z,16.98
2023-03-22T00:45:13.219Z,16.98
2023-03-22T00:48:14.873Z,16.97
2023-03-22T00:51:16.868Z,16.97
2023-03-22T00:54:18.871Z,16.96
2023-03-22T00:57:20.592Z,16.95
2023-03-22T01:00:22.376Z,16.94
2023-03-22T01:03:24.648Z,16.93
2023-03-22T01:06:27.138Z,16.94
2023-03-22T01:09:30.891Z,16.94
2023-03-22T01:12:32.385Z,16.92
2023-03-22T01:15:34.242Z,16.92
2023-03-22T01:18:36.369Z,16.92
2023-03-22T01:21:37.999Z,16.91
2023-03-22T01:24:40.035Z,16.90
2023-03-22T01:27:41.567Z,16.90
2023-03-22T01:30:43.282Z,16.90
2023-03-22T01:33:45.008Z,16.89
2023-03-22T01:36:46.516Z,16.88
2023-03-22T01:39:48.075Z,16.88
2023-03-22T01:42:53.062Z,16.88
2023-03-22T01:45:56.429Z,16.87
2023-03-22T01:49:04.927Z,16.87
2023-03-22T01:52:12.447Z,16.86
2023-03-22T01:55:34.860Z,16.85
2023-03-22T01:58:46.783Z,16.85
2023-03-22T02:01:52.546Z,16.83
2023-03-22T02:04:57.972Z,16.83
2023-03-22T02:08:03.047Z,16.82
2023-03-22T02:11:17.529Z,16.84
2023-03-22T02:14:33.184Z,16.83
2023-03-22T02:18:06.669Z,16.83
2023-03-22T02:21:14.860Z,16.80
2023-03-22T02:24:55.427Z,16.82
2023-03-22T02:28:18.741Z,16.82
2023-03-22T02:31:40.670Z,16.81
2023-03-22T02:35:17.014Z,16.80
2023-03-22T02:38:45.553Z,16.80
2023-03-22T02:42:21.569Z,16.79
2023-03-22T02:46:18.319Z,16.78
2023-03-22T02:49:19.829Z,16.76
2023-03-22T02:52:40.521Z,16.77
2023-03-22T02:55:51.207Z,16.76
2023-03-22T02:58:59.584Z,16.77
2023-03-22T03:02:03.739Z,16.76
2023-03-22T03:05:05.765Z,16.76
2023-03-22T03:08:12.267Z,16.77
2023-03-22T03:11:15.607Z,16.74
2023-03-22T03:14:26.379Z,16.75
2023-03-22T03:17:45.045Z,16.74
2023-03-22T03:21:02.245Z,16.75
2023-03-22T03:24:22.781Z,16.74
2023-03-22T03:27:33.302Z,16.72
2023-03-22T03:30:43.199Z,16.73
2023-03-22T03:33:56.026Z,16.72
2023-03-22T03:37:04.913Z,16.71
2023-03-22T03:40:12.744Z,16.70
2023-03-22T03:43:15.940Z,16.70
2023-03-22T03:46:17.621Z,16.69
2023-03-22T03:49:21.939Z,16.69
2023-03-22T03:52:26.109Z,16.69
2023-03-22T03:55:28.860Z,16.70
2023-03-22T03:58:30.631Z,16.70
2023-03-22T04:01:32.217Z,16.70
2023-03-22T04:04:44.274Z,16.71
2023-03-22T04:07:45.987Z,16.70
2023-03-22T04:10:51.819Z,16.72
2023-03-22T04:13:54.824Z,16.73
2023-03-22T04:16:58.158Z,16.74
2023-03-22T04:20:05.370Z,16.76
2023-03-22T04:23:10.953Z,16.78
2023-03-22T04:26:13.423Z,16.80
2023-03-22T04:29:26.682Z,16.81
2023-03-22T04:32:33.963Z,16.82
2023-03-22T04:35:35.627Z,16.85
2023-03-22T04:38:39.396Z,16.86
2023-03-22T04:41:43.691Z,16.90
2023-03-22T04:44:45.584Z,16.92
2023-03-22T04:47:47.686Z,16.93
2023-03-22T04:50:53.216Z,16.97
2023-03-22T04:53:58.466Z,16.99
2023-03-22T04:57:00.939Z,17.00
2023-03-22T05:00:08.397Z,17.02
2023-03-22T05:03:10.352Z,17.02
2023-03-22T05:06:15.867Z,17.03
2023-03-22T05:09:29.937Z,17.04
2023-03-22T05:12:32.561Z,17.05
2023-03-22T05:15:49.502Z,17.05
2023-03-22T05:18:54.424Z,17.05
2023-03-22T05:21:58.244Z,17.04
2023-03-22T05:25:11.608Z,17.05
2023-03-22T05:28:22.194Z,17.04
2023-03-22T05:31:34.423Z,17.04
2023-03-22T05:34:37.225Z,17.04
2023-03-22T05:37:58.901Z,17.04
2023-03-22T05:41:03.249Z,17.03
2023-03-22T05:44:07.408Z,17.03
2023-03-22T05:47:12.374Z,17.02
2023-03-22T05:50:24.183Z,17.02
2023-03-22T05:53:26.064Z,17.01
2023-03-22T05:56:35.172Z,17.01
2023-03-22T05:59:41.182Z,17.01
2023-03-22T06:02:48.530Z,17.02
2023-03-22T06:05:50.850Z,17.01
2023-03-22T06:09:06.979Z,17.02
2023-03-22T06:12:17.068Z,17.03
2023-03-22T06:15:23.579Z,17.05
2023-03-22T06:18:33.967Z,17.06
2023-03-22T06:21:43.721Z,17.06
2023-03-22T06:24:50.829Z,17.07
2023-03-22T06:28:01.849Z,17.08
2023-03-22T06:31:08.624Z,17.09
2023-03-22T06:34:36.276Z,17.08
2023-03-22T06:37:37.830Z,17.10
2023-03-22T06:40:39.904Z,17.11
2023-03-22T06:43:41.643Z,17.11
2023-03-22T06:46:57.895Z,17.12
2023-03-22T06:50:22.676Z,17.12
2023-03-22T06:53:35.490Z,17.14
2023-03-22T06:56:38.271Z,17.13
2023-03-22T06:59:40.681Z,17.14
2023-03-22T07:02:42.151Z,17.14
2023-03-22T07:06:08.449Z,17.14
2023-03-22T07:09:12.797Z,17.13
2023-03-22T07:12:14.487Z,17.12
2023-03-22T07:15:17.450Z,17.12
2023-03-22T07:18:45.069Z,17.12
2023-03-22T07:21:46.684Z,17.11
2023-03-22T07:24:56.933Z,17.12
2023-03-22T07:28:01.196Z,17.11
2023-03-22T07:31:06.926Z,17.12
2023-03-22T07:34:20.829Z,17.11
2023-03-22T07:37:35.739Z,17.11
2023-03-22T07:40:41.996Z,17.11
2023-03-22T07:43:55.237Z,17.11
2023-03-22T07:46:58.461Z,17.10
2023-03-22T07:50:06.799Z,17.11
2023-03-22T07:53:09.417Z,17.10
2023-03-22T07:56:10.975Z,17.09
2023-03-22T07:59:13.358Z,17.09
2023-03-22T08:02:16.021Z,17.08
2023-03-22T08:05:22.592Z,17.09
2023-03-22T08:08:31.311Z,17.08
2023-03-22T08:11:33.478Z,17.09
2023-03-22T08:14:37.114Z,17.07
2023-03-22T08:17:42.965Z,17.08
2023-03-22T08:20:58.739Z,17.09
2023-03-22T08:24:03.926Z,17.08
2023-03-22T08:27:34.477Z,17.07
2023-03-22T08:30:36.519Z,17.07
2023-03-22T08:33:38.583Z,17.07
2023-03-22T08:36:40.846Z,17.07
2023-03-22T08:39:43.747Z,17.07
2023-03-22T08:43:11.253Z,17.06
2023-03-22T08:46:12.984Z,17.07
2023-03-22T08:49:16.612Z,17.06
2023-03-22T08:52:27.020Z,17.07
2023-03-22T08:55:37.453Z,17.06
2023-03-22T08:58:47.692Z,17.05
2023-03-22T09:02:01.975Z,17.06
2023-03-22T09:05:04.158Z,17.06
2023-03-22T09:08:06.901Z,17.06
2023-03-22T09:11:17.912Z,17.07
2023-03-22T09:14:21.298Z,17.08
2023-03-22T09:17:23.385Z,17.08
2023-03-22T09:20:25.880Z,17.07
2023-03-22T09:23:28.961Z,17.08
2023-03-22T09:26:30.597Z,17.08
2023-03-22T09:29:32.428Z,17.08
2023-03-22T09:32:40.264Z,17.08
2023-03-22T09:35:43.216Z,17.10
2023-03-22T09:38:48.096Z,17.12
2023-03-22T09:41:54.903Z,17.13
2023-03-22T09:44:57.977Z,17.13
2023-03-22T09:48:06.934Z,17.15
2023-03-22T09:51:28.836Z,17.15
2023-03-22T09:54:37.428Z,17.15
2023-03-22T09:57:39.669Z,17.14
2023-03-22T10:01:08.206Z,17.17
2023-03-22T10:04:12.367Z,17.15
2023-03-22T10:07:22.575Z,17.15
2023-03-22T10:10:25.129Z,17.17
2023-03-22T10:13:58.925Z,17.19
2023-03-22T10:17:05.674Z,17.20
2023-03-22T10:20:18.220Z,17.21
2023-03-22T10:23:50.801Z,17.21
2023-03-22T10:26:53.317Z,17.21
2023-03-22T10:30:10.157Z,17.22
2023-03-22T10:33:22.544Z,17.22
2023-03-22T10:36:30.972Z,17.22
2023-03-22T10:39:46.366Z,17.22
2023-03-22T10:42:54.501Z,17.22
2023-03-22T10:45:58.153Z,17.26
2023-03-22T10:49:01.462Z,17.27
2023-03-22T10:52:21.246Z,17.29
2023-03-22T10:55:24.297Z,17.28
2023-03-22T10:58:34.087Z,17.28
2023-03-22T11:01:43.841Z,17.26
2023-03-22T11:04:53.837Z,17.27
2023-03-22T11:07:58.351Z,17.25
2023-03-22T11:11:00.275Z,17.22
2023-03-22T11:14:07.208Z,17.21
2023-03-22T11:17:14.029Z,17.17
2023-03-22T11:20:17.876Z,17.15
2023-03-22T11:23:21.552Z,17.12
2023-03-22T11:26:35.672Z,17.09
2023-03-22T11:29:49.270Z,17.07
2023-03-22T11:33:15.558Z,17.10
2023-03-22T11:36:19.042Z,17.11
2023-03-22T11:39:22.194Z,17.14
2023-03-22T11:42:23.729Z,17.17
2023-03-22T11:45:30.908Z,17.19
2023-03-22T11:48:34.618Z,17.25
2023-03-22T11:51:38.968Z,17.27
2023-03-22T11:54:42.290Z,17.28
2023-03-22T11:57:44.013Z,17.30
2023-03-22T12:00:46.469Z,17.31
2023-03-22T12:03:54.511Z,17.33
2023-03-22T12:06:59.802Z,17.36
2023-03-22T12:10:10.842Z,17.38
2023-03-22T12:13:21.292Z,17.41
2023-03-22T12:16:28.147Z,17.41
2023-03-22T12:19:36.925Z,17.43
2023-03-22T12:22:43.189Z,17.44
2023-03-22T12:25:51.299Z,17.45
2023-03-22T12:29:01.415Z,17.46
2023-03-22T12:32:09.736Z,17.47
2023-03-22T12:35:24.034Z,17.48
2023-03-22T12:38:42.994Z,17.48
2023-03-22T12:41:47.965Z,17.49
2023-03-22T12:45:04.202Z,17.49
2023-03-22T12:48:18.915Z,17.50
2023-03-22T12:51:20.816Z,17.49
2023-03-22T12:54:25.356Z,17.52
2023-03-22T12:57:27.292Z,17.51
2023-03-22T13:00:38.279Z,17.51
2023-03-22T13:03:47.199Z,17.53
2023-03-22T13:07:07.994Z,17.55
2023-03-22T13:10:31.768Z,17.55
2023-03-22T13:13:41.719Z,17.55
2023-03-22T13:16:52.955Z,17.55
2023-03-22T13:20:07.945Z,17.56
2023-03-22T13:23:24.459Z,17.56
2023-03-22T13:26:45.947Z,17.58
2023-03-22T13:29:53.958Z,17.57
2023-03-22T13:33:14.845Z,17.58
2023-03-22T13:36:25.461Z,17.59
2023-03-22T13:39:34.590Z,17.62
2023-03-22T13:42:39.069Z,17.60
2023-03-22T13:45:58.322Z,17.60
2023-03-22T13:49:01.028Z,17.58
2023-03-22T13:52:08.181Z,17.58
2023-03-22T13:55:46.787Z,17.59
2023-03-22T13:58:52.933Z,17.58
2023-03-22T14:01:57.413Z,17.58
2023-03-22T14:05:07.903Z,17.60
2023-03-22T14:08:20.362Z,17.62
2023-03-22T14:11:45.962Z,17.63
2023-03-22T14:14:54.980Z,17.64
2023-03-22T14:18:00.682Z,17.64
2023-03-22T14:21:09.144Z,17.64
